Time;durP1;ratioP1;P1;durP2;ratioP2;P2;SDS_P1;SDS_P2;PMS_P1;PMS_P2;Temp;Humidity;BMP_temperature;BMP_pressure;BME280_temperature;BME280_humidity;BME280_pressure;Samples;Min_cycle;Max_cycle;Signal;HPM_P1;HPM_P2
2023/01/25 00:00:24;;;;;;;93.75;34.92;;;;;;;0.43;100.00;103701.34;5250189;28;20055;-74
2023/01/25 00:02:54;;;;;;;93.97;38.38;;;;;;;0.42;100.00;103700.50;5265591;28;20035;-74
2023/01/25 00:05:25;;;;;;;93.28;36.95;;;;;;;0.45;100.00;103699.53;5251056;28;20099;-74
2023/01/25 00:07:55;;;;;;;87.32;33.95;;;;;;;0.44;100.00;103700.44;5245748;28;20369;-74
2023/01/25 00:10:26;;;;;;;84.50;32.85;;;;;;;0.42;100.00;103699.63;5244781;28;20446;-74
2023/01/25 00:12:56;;;;;;;79.07;32.85;;;;;;;0.40;100.00;103696.13;5245969;28;20032;-74
2023/01/25 00:15:27;;;;;;;86.90;34.00;;;;;;;0.38;100.00;103693.53;5254265;28;20046;-74
2023/01/25 00:17:57;;;;;;;86.63;32.92;;;;;;;0.37;100.00;103686.50;5254197;28;20074;-74
2023/01/25 00:20:28;;;;;;;80.80;32.65;;;;;;;0.37;100.00;103683.88;5245726;28;20024;-74
2023/01/25 00:22:58;;;;;;;85.30;34.10;;;;;;;0.38;100.00;103676.81;5245875;28;20039;-74
2023/01/25 00:25:28;;;;;;;82.97;33.03;;;;;;;0.36;100.00;103673.34;5246020;28;20389;-74
2023/01/25 00:27:59;;;;;;;84.47;34.45;;;;;;;0.36;100.00;103678.63;5244921;28;20424;-74
2023/01/25 00:30:29;;;;;;;88.97;33.88;;;;;;;0.33;100.00;103671.63;5245354;28;20177;-74
2023/01/25 00:33:28;;;;;;;87.05;33.50;;;;;;;0.32;100.00;103675.16;5245477;28;20521;-74
2023/01/25 00:36:00;;;;;;;85.68;34.00;;;;;;;0.31;100.00;103668.16;5245796;28;20060;-73
2023/01/25 00:38:33;;;;;;;74.85;30.95;;;;;;;0.31;100.00;103672.56;5257657;28;20107;-74
2023/01/25 00:41:04;;;;;;;81.28;32.30;;;;;;;0.31;100.00;103664.66;5245908;28;20066;-74
2023/01/25 00:43:34;;;;;;;68.13;29.40;;;;;;;0.29;100.00;103674.34;5244656;28;20412;-74
2023/01/25 00:46:05;;;;;;;77.25;32.35;;;;;;;0.26;100.00;103672.66;5244560;28;20107;-74
2023/01/25 00:48:35;;;;;;;77.00;29.88;;;;;;;0.29;100.00;103661.16;5243964;28;20033;-74
2023/01/25 00:51:06;;;;;;;74.25;29.95;;;;;;;0.26;100.00;103667.38;5249801;28;20028;-74
2023/01/25 00:53:36;;;;;;;84.55;34.13;;;;;;;0.27;100.00;103665.59;5254258;28;20111;-74
2023/01/25 00:56:07;;;;;;;88.22;33.15;;;;;;;0.27;100.00;103657.69;5245480;28;20119;-74
2023/01/25 00:58:37;;;;;;;90.68;34.95;;;;;;;0.29;100.00;103667.28;5245406;28;20016;-74
2023/01/25 01:01:08;;;;;;;91.72;34.47;;;;;;;0.30;100.00;103669.03;5258814;28;20020;-74
2023/01/25 01:03:39;;;;;;;86.25;33.78;;;;;;;0.38;100.00;103663.59;5258415;28;20020;-74
2023/01/25 01:06:11;;;;;;;77.88;31.20;;;;;;;0.44;100.00;103664.34;5244113;28;20494;-74
2023/01/25 01:08:41;;;;;;;78.40;32.65;;;;;;;0.43;100.00;103665.25;5244432;28;20384;-74
2023/01/25 01:11:12;;;;;;;84.00;32.40;;;;;;;0.38;100.00;103653.91;5245041;28;20028;-74
2023/01/25 01:13:42;;;;;;;82.13;32.95;;;;;;;0.35;100.00;103659.28;5244870;28;20028;-74
2023/01/25 01:16:13;;;;;;;87.72;33.83;;;;;;;0.31;100.00;103651.44;5259225;28;20047;-74
2023/01/25 01:18:44;;;;;;;82.05;33.60;;;;;;;0.30;100.00;103647.91;5251662;28;20020;-74
2023/01/25 01:21:15;;;;;;;91.32;33.65;;;;;;;0.30;100.00;103649.69;5254138;28;20024;-74
2023/01/25 01:23:45;;;;;;;80.65;32.38;;;;;;;0.28;100.00;103647.06;5243450;28;20058;-74
2023/01/25 01:26:18;;;;;;;92.68;35.30;;;;;;;0.29;100.00;103650.59;5257827;28;20409;-74
2023/01/25 01:28:48;;;;;;;94.53;35.00;;;;;;;0.29;100.00;103642.66;5243524;28;20088;-74
2023/01/25 01:31:21;;;;;;;90.68;35.15;;;;;;;0.28;100.00;103643.56;5244592;28;20039;-74
2023/01/25 01:33:55;;;;;;;97.82;35.92;;;;;;;0.28;100.00;103643.56;5253614;28;20526;-74
2023/01/25 01:36:27;;;;;;;92.35;34.42;;;;;;;0.28;100.00;103651.50;5248739;28;20029;-74
2023/01/25 01:38:58;;;;;;;84.75;33.30;;;;;;;0.27;100.00;103657.69;5255171;28;20392;-74
2023/01/25 01:41:29;;;;;;;83.72;32.65;;;;;;;0.23;100.00;103660.38;5245699;28;20024;-74
2023/01/25 01:43:59;;;;;;;84.43;32.03;;;;;;;0.16;100.00;103657.91;5245068;28;20103;-74
2023/01/25 01:46:36;;;;;;;83.22;32.30;;;;;;;0.16;100.00;103653.47;5244316;28;20017;-74
2023/01/25 01:49:15;;;;;;;86.03;31.73;;;;;;;0.15;100.00;103651.75;5243169;28;20067;-74
2023/01/25 01:52:20;;;;;;;89.45;34.75;;;;;;;0.13;100.00;103656.19;5244652;28;20050;-74
2023/01/25 01:55:10;;;;;;;85.22;32.80;;;;;;;0.15;100.00;103661.41;5210734;28;20055;-74
2023/01/25 01:57:46;;;;;;;89.47;33.53;;;;;;;0.16;100.00;103655.25;5243634;28;20142;-74
2023/01/25 02:00:24;;;;;;;99.68;34.92;;;;;;;0.15;100.00;103654.38;5256558;28;20415;-74
2023/01/25 02:02:56;;;;;;;94.45;36.67;;;;;;;0.16;100.00;103655.25;5262892;28;20024;-74
2023/01/25 02:05:39;;;;;;;99.75;38.13;;;;;;;0.17;100.00;103655.22;5263348;28;20024;-74
2023/01/25 02:08:12;;;;;;;95.95;36.55;;;;;;;0.15;100.00;103657.03;5243970;28;20016;-74
2023/01/25 02:10:44;;;;;;;99.00;36.22;;;;;;;0.13;100.00;103653.53;5245245;28;20103;-73
2023/01/25 02:13:18;;;;;;;81.05;32.17;;;;;;;0.07;100.00;103658.94;5247313;28;20028;-74
2023/01/25 02:15:50;;;;;;;81.22;32.35;;;;;;;0.09;100.00;103648.34;5258471;28;20024;-74
2023/01/25 02:18:23;;;;;;;91.45;36.03;;;;;;;0.09;100.00;103657.13;5253591;28;20112;-74
2023/01/25 02:20:58;;;;;;;90.60;33.60;;;;;;;0.08;100.00;103652.75;5248169;28;20030;-74
2023/01/25 02:23:50;;;;;;;94.72;34.35;;;;;;;0.10;100.00;103643.06;5248340;28;20031;-74
2023/01/25 02:26:22;;;;;;;93.65;35.90;;;;;;;0.09;100.00;103651.84;5246644;28;20024;-74
2023/01/25 02:29:03;;;;;;;102.70;36.10;;;;;;;0.09;100.00;103648.34;5247950;28;20040;-74
2023/01/25 02:31:34;;;;;;;100.80;37.70;;;;;;;0.07;100.00;103643.09;5247674;28;20039;-74
2023/01/25 02:34:04;;;;;;;88.18;34.13;;;;;;;0.07;100.00;103648.38;5248181;28;20016;-74
2023/01/25 02:36:35;;;;;;;89.97;34.60;;;;;;;0.08;100.00;103642.19;5247595;28;20033;-74
2023/01/25 02:39:17;;;;;;;87.70;33.83;;;;;;;0.05;100.00;103644.91;5260313;28;20028;-74
2023/01/25 02:41:47;;;;;;;96.22;34.10;;;;;;;0.04;100.00;103639.66;5247782;28;20024;-74
2023/01/25 02:44:23;;;;;;;84.65;31.80;;;;;;;0.04;100.00;103626.44;5246556;28;20043;-74
2023/01/25 02:46:54;;;;;;;81.68;31.63;;;;;;;0.12;100.00;103641.25;5246557;28;20017;-74
2023/01/25 02:49:24;;;;;;;77.30;31.65;;;;;;;0.09;100.00;103632.50;5261303;28;20055;-74
2023/01/25 02:51:56;;;;;;;90.80;34.70;;;;;;;0.04;100.00;103635.22;5247748;28;20024;-74
2023/01/25 02:54:44;;;;;;;85.20;33.40;;;;;;;0.00;100.00;103628.31;5247720;28;20048;-74
2023/01/25 02:57:15;;;;;;;87.82;33.65;;;;;;;-0.03;100.00;103636.25;5260772;28;20109;-74
2023/01/25 02:59:45;;;;;;;94.55;36.92;;;;;;;-0.07;100.00;103634.56;5256123;28;20044;-74
2023/01/25 03:02:20;;;;;;;84.47;32.42;;;;;;;-0.20;100.00;103636.59;5254476;28;20104;-74
2023/01/25 03:04:50;;;;;;;92.28;35.45;;;;;;;-0.19;100.00;103638.34;5256638;28;20044;-74
2023/01/25 03:07:21;;;;;;;91.22;33.10;;;;;;;-0.18;100.00;103634.78;5247003;28;20020;-74
2023/01/25 03:09:51;;;;;;;92.40;33.72;;;;;;;-0.17;100.00;103627.75;5247413;28;20029;-74
2023/01/25 03:12:22;;;;;;;94.90;35.58;;;;;;;-0.17;100.00;103631.25;5247287;28;20020;-74
2023/01/25 03:14:52;;;;;;;101.63;37.17;;;;;;;-0.14;100.00;103622.41;5250473;28;20106;-74
2023/01/25 03:17:23;;;;;;;96.30;36.28;;;;;;;-0.13;100.00;103621.50;5247101;28;20056;-73
2023/01/25 03:19:54;;;;;;;99.63;37.40;;;;;;;-0.13;100.00;103618.88;5245845;28;20028;-74
2023/01/25 03:22:24;;;;;;;93.95;35.03;;;;;;;-0.15;100.00;103612.72;5246963;28;20020;-74
2023/01/25 03:24:56;;;;;;;91.38;34.78;;;;;;;-0.15;100.00;103612.72;5246914;28;20138;-74
2023/01/25 03:27:28;;;;;;;97.72;34.60;;;;;;;-0.16;100.00;103611.00;5245504;28;20025;-74
2023/01/25 03:30:06;;;;;;;92.07;34.70;;;;;;;-0.15;100.00;103613.63;5252101;28;20054;-73
2023/01/25 03:32:37;;;;;;;107.38;37.50;;;;;;;-0.15;100.00;103611.00;5255268;28;20036;-74
2023/01/25 03:35:09;;;;;;;98.85;36.67;;;;;;;-0.15;100.00;103618.91;5260437;28;20489;-74
2023/01/25 03:37:39;;;;;;;101.45;36.00;;;;;;;-0.13;100.00;103605.69;5246115;28;20035;-74
2023/01/25 03:40:10;;;;;;;97.95;35.75;;;;;;;-0.14;100.00;103603.94;5246720;28;20031;-74
2023/01/25 03:42:41;;;;;;;99.35;36.28;;;;;;;-0.14;100.00;103602.16;5260246;28;20047;-74
2023/01/25 03:45:13;;;;;;;96.57;34.42;;;;;;;-0.17;100.00;103596.94;5255450;28;20067;-74
2023/01/25 03:47:43;;;;;;;99.43;37.55;;;;;;;-0.17;100.00;103596.06;5262466;28;20085;-74
2023/01/25 03:50:14;;;;;;;109.68;39.58;;;;;;;-0.19;100.00;103590.84;5246549;28;20025;-74
2023/01/25 03:52:47;;;;;;;107.28;38.05;;;;;;;-0.20;100.00;103588.19;5265169;28;20480;-74
2023/01/25 03:55:17;;;;;;;112.50;38.60;;;;;;;-0.21;100.00;103597.03;5253800;28;20024;-74
2023/01/25 03:57:48;;;;;;;102.25;37.60;;;;;;;-0.26;100.00;103592.69;5244849;28;20020;-74
2023/01/25 04:00:19;;;;;;;102.00;37.08;;;;;;;-0.27;100.00;103590.97;5246494;28;20020;-74
2023/01/25 04:02:50;;;;;;;96.68;35.80;;;;;;;-0.30;100.00;103603.38;5253339;28;20035;-74
2023/01/25 04:05:20;;;;;;;97.75;34.90;;;;;;;-0.32;100.00;103592.81;5252346;28;20024;-74
2023/01/25 04:07:51;;;;;;;93.68;34.88;;;;;;;-0.42;100.00;103591.25;5245984;28;20020;-74
2023/01/25 04:10:21;;;;;;;89.13;33.92;;;;;;;-0.48;100.00;103590.50;5245933;28;20030;-74
2023/01/25 04:12:52;;;;;;;99.82;35.10;;;;;;;-0.47;100.00;103586.97;5246141;28;20373;-74
2023/01/25 04:15:22;;;;;;;99.07;35.50;;;;;;;-0.49;100.00;103597.56;5249462;28;20468;-74
2023/01/25 04:17:52;;;;;;;100.18;35.53;;;;;;;-0.46;100.00;103593.97;5245792;28;20049;-73
2023/01/25 04:20:23;;;;;;;97.22;35.70;;;;;;;-0.48;100.00;103586.09;5245729;28;20477;-74
2023/01/25 04:22:53;;;;;;;97.60;35.83;;;;;;;-0.46;100.00;103593.97;5246007;28;20481;-74
2023/01/25 04:25:24;;;;;;;97.15;35.20;;;;;;;-0.48;100.00;103594.00;5245697;28;20020;-74
2023/01/25 04:27:54;;;;;;;100.82;35.97;;;;;;;-0.48;100.00;103590.50;5244192;28;20051;-74
2023/01/25 04:30:25;;;;;;;105.63;36.20;;;;;;;-0.47;100.00;103590.47;5245643;28;20476;-74
2023/01/25 04:32:56;;;;;;;106.75;38.40;;;;;;;-0.46;100.00;103581.66;5245588;28;20029;-74
2023/01/25 04:35:26;;;;;;;105.75;36.83;;;;;;;-0.45;100.00;103578.16;5245547;28;20029;-74
2023/01/25 04:37:58;;;;;;;97.13;35.15;;;;;;;-0.43;100.00;103586.03;5245083;28;20048;-74
2023/01/25 04:40:29;;;;;;;106.60;37.63;;;;;;;-0.48;100.00;103575.56;5245742;28;20536;-74
2023/01/25 04:42:59;;;;;;;101.78;37.35;;;;;;;-0.45;100.00;103571.97;5244405;28;20025;-74
2023/01/25 04:45:29;;;;;;;106.25;36.20;;;;;;;-0.44;100.00;103571.09;5245707;28;20107;-74
2023/01/25 04:48:03;;;;;;;103.45;36.67;;;;;;;-0.43;100.00;103570.19;5257517;28;20048;-74
2023/01/25 04:50:33;;;;;;;110.65;38.50;;;;;;;-0.42;100.00;103572.78;5245016;28;20052;-73
2023/01/25 04:53:06;;;;;;;110.57;38.60;;;;;;;-0.41;100.00;103571.88;5245493;28;20107;-74
2023/01/25 04:55:36;;;;;;;103.07;35.30;;;;;;;-0.42;100.00;103569.28;5245363;28;20092;-74
2023/01/25 04:58:07;;;;;;;111.78;40.92;;;;;;;-0.43;100.00;103571.06;5243785;28;20161;-74
2023/01/25 05:00:37;;;;;;;99.07;36.33;;;;;;;-0.44;100.00;103579.88;5259009;28;20031;-74
2023/01/25 05:03:07;;;;;;;103.20;37.08;;;;;;;-0.48;100.00;103583.47;5254614;28;20020;-74
2023/01/25 05:05:38;;;;;;;99.55;35.38;;;;;;;-0.50;100.00;103581.75;5249026;28;20476;-74
2023/01/25 05:08:08;;;;;;;106.28;38.25;;;;;;;-0.52;100.00;103572.09;5245032;28;20020;-74
2023/01/25 05:10:39;;;;;;;94.18;35.00;;;;;;;-0.66;100.00;103574.09;5244986;28;20060;-74
2023/01/25 05:13:09;;;;;;;100.65;37.47;;;;;;;-0.67;100.00;103572.38;5245223;28;20049;-74
2023/01/25 05:15:40;;;;;;;102.22;37.65;;;;;;;-0.64;100.00;103566.19;5248460;28;20029;-74
2023/01/25 05:18:10;;;;;;;111.55;39.47;;;;;;;-0.66;100.00;103562.69;5244469;28;20052;-74
2023/01/25 05:20:40;;;;;;;100.32;36.72;;;;;;;-0.65;100.00;103564.47;5244801;28;20050;-74
2023/01/25 05:23:11;;;;;;;106.30;37.15;;;;;;;-0.63;100.00;103567.91;5257448;28;20495;-73
2023/01/25 05:28:30;;;;;;;104.97;35.83;;;;;;;-0.62;100.00;103559.97;5244431;28;20482;-74
2023/01/25 05:31:04;;;;;;;99.43;33.95;;;;;;;-0.59;100.00;103548.53;5257082;28;20066;-74
2023/01/25 05:33:34;;;;;;;102.85;36.85;;;;;;;-0.57;100.00;103563.41;5245362;28;20024;-74
2023/01/25 05:36:05;;;;;;;98.82;37.47;;;;;;;-0.59;100.00;103546.75;5244529;28;20031;-74
2023/01/25 05:38:35;;;;;;;104.35;36.55;;;;;;;-0.56;100.00;103543.16;5243926;28;20075;-74
2023/01/25 05:41:06;;;;;;;96.93;35.50;;;;;;;-0.56;100.00;103536.13;5244541;28;20519;-74
2023/01/25 05:43:36;;;;;;;107.68;39.38;;;;;;;-0.56;100.00;103537.88;5244890;28;20024;-74
2023/01/25 05:46:07;;;;;;;105.03;36.17;;;;;;;-0.56;100.00;103538.75;5244435;28;20024;-74
2023/01/25 05:48:38;;;;;;;101.28;35.97;;;;;;;-0.55;100.00;103531.75;5244456;28;20025;-74
2023/01/25 05:51:09;;;;;;;101.20;36.70;;;;;;;-0.56;100.00;103532.63;5244298;28;20108;-73
2023/01/25 05:53:39;;;;;;;101.43;35.55;;;;;;;-0.62;100.00;103541.50;5244713;28;20099;-74
2023/01/25 05:56:10;;;;;;;94.78;34.50;;;;;;;-0.60;100.00;103544.16;5244480;28;20112;-73
2023/01/25 05:58:40;;;;;;;101.07;36.00;;;;;;;-0.59;100.00;103540.59;5246612;28;20108;-74
2023/01/25 06:01:11;;;;;;;106.43;38.20;;;;;;;-0.59;100.00;103532.69;5243079;28;20024;-74
2023/01/25 06:03:41;;;;;;;106.72;37.15;;;;;;;-0.61;100.00;103531.84;5257566;28;20082;-74
2023/01/25 06:06:12;;;;;;;103.93;36.47;;;;;;;-0.61;100.00;103531.84;5256831;28;20020;-74
2023/01/25 06:08:43;;;;;;;92.03;35.45;;;;;;;-0.62;100.00;103540.66;5244062;28;20046;-74
2023/01/25 06:11:17;;;;;;;112.70;34.83;;;;;;;-0.68;100.00;103532.84;5244370;28;20024;-74
2023/01/25 06:13:49;;;;;;;101.72;36.13;;;;;;;-0.74;100.00;103544.38;5243964;28;20436;-74
2023/01/25 06:16:19;;;;;;;106.32;37.10;;;;;;;-0.77;100.00;103543.56;5248221;28;20047;-74
2023/01/25 06:18:50;;;;;;;104.35;36.10;;;;;;;-0.74;100.00;103538.25;5244230;28;20132;-73
2023/01/25 06:21:21;;;;;;;111.75;39.50;;;;;;;-0.75;100.00;103536.50;5243037;28;20066;-74
2023/01/25 06:23:53;;;;;;;101.22;35.00;;;;;;;-0.81;100.00;103537.47;5244236;28;20678;-74
2023/01/25 06:26:23;;;;;;;101.40;34.30;;;;;;;-0.81;100.00;103527.78;5244203;28;20488;-74
2023/01/25 06:28:53;;;;;;;102.60;36.47;;;;;;;-0.75;100.00;103531.22;5245079;28;20031;-74
2023/01/25 06:31:24;;;;;;;95.95;33.97;;;;;;;-0.74;100.00;103523.31;5244194;28;20058;-74
2023/01/25 06:33:54;;;;;;;93.82;33.75;;;;;;;-0.75;100.00;103536.50;5244479;28;20732;-73
2023/01/25 06:36:25;;;;;;;99.15;34.10;;;;;;;-0.76;100.00;103535.63;5257481;28;20120;-73
2023/01/25 06:38:55;;;;;;;97.10;36.40;;;;;;;-0.81;100.00;103526.94;5243894;28;20489;-74
2023/01/25 06:41:26;;;;;;;98.07;34.88;;;;;;;-0.81;100.00;103525.16;5243995;28;20025;-74
2023/01/25 06:43:56;;;;;;;91.05;33.47;;;;;;;-0.84;100.00;103521.72;5244361;28;20029;-74
2023/01/25 06:46:27;;;;;;;92.43;34.50;;;;;;;-0.84;100.00;103533.13;5243852;28;20029;-74
2023/01/25 06:48:57;;;;;;;94.95;33.72;;;;;;;-0.81;100.00;103527.78;5244296;28;20029;-74
2023/01/25 06:51:28;;;;;;;103.93;36.35;;;;;;;-0.80;100.00;103540.09;5243481;28;20056;-74
2023/01/25 06:54:01;;;;;;;96.28;35.00;;;;;;;-0.78;100.00;103537.44;5243900;28;20035;-73
2023/01/25 06:56:32;;;;;;;107.28;37.45;;;;;;;-0.76;100.00;103540.03;5243887;28;20027;-74
2023/01/25 06:59:02;;;;;;;106.78;37.42;;;;;;;-0.74;100.00;103530.34;5251056;28;20017;-74
2023/01/25 07:01:33;;;;;;;109.07;38.10;;;;;;;-0.72;100.00;103536.44;5258909;28;20020;-74
2023/01/25 07:04:04;;;;;;;103.68;35.10;;;;;;;-0.75;100.00;103532.13;5247369;28;20028;-74
2023/01/25 07:06:34;;;;;;;96.15;34.13;;;;;;;-0.77;100.00;103533.88;5247367;28;20124;-74
2023/01/25 07:09:11;;;;;;;93.28;33.72;;;;;;;-0.81;100.00;103530.44;5245427;28;20016;-74
2023/01/25 07:11:42;;;;;;;97.70;36.30;;;;;;;-0.88;100.00;103535.84;5252478;28;20028;-74
2023/01/25 07:14:12;;;;;;;100.43;35.60;;;;;;;-0.87;100.00;103532.31;5245051;28;20027;-74
2023/01/25 07:16:43;;;;;;;94.22;32.95;;;;;;;-0.81;100.00;103530.44;5262035;28;20097;-74
2023/01/25 07:19:13;;;;;;;89.22;32.60;;;;;;;-0.73;100.00;103521.53;5246404;28;20443;-74
2023/01/25 07:21:45;;;;;;;95.53;35.38;;;;;;;-0.78;100.00;103521.63;5246037;28;20029;-74
2023/01/25 07:24:18;;;;;;;95.75;33.17;;;;;;;-0.73;100.00;103522.41;5246520;28;20028;-74
2023/01/25 07:26:49;;;;;;;96.63;35.10;;;;;;;-0.72;100.00;103518.84;5244821;28;20445;-74
2023/01/25 07:29:19;;;;;;;103.30;38.08;;;;;;;-0.71;100.00;103511.81;5246453;28;20119;-74
2023/01/25 07:31:50;;;;;;;99.28;38.78;;;;;;;-0.70;100.00;103519.72;5245659;28;20107;-74
2023/01/25 07:34:20;;;;;;;96.03;35.85;;;;;;;-0.76;100.00;103529.47;5246543;28;20028;-74
2023/01/25 07:36:51;;;;;;;93.22;32.55;;;;;;;-0.86;100.00;103532.28;5257886;28;20036;-74
2023/01/25 07:39:21;;;;;;;90.80;33.15;;;;;;;-0.99;100.00;103529.91;5245437;28;20589;-74
2023/01/25 07:41:52;;;;;;;94.20;34.25;;;;;;;-1.03;100.00;103521.16;5255273;28;20107;-74
2023/01/25 07:44:23;;;;;;;101.95;35.33;;;;;;;-0.99;100.00;103520.22;5250025;28;20016;-74
2023/01/25 07:46:54;;;;;;;101.40;35.83;;;;;;;-0.96;100.00;103524.56;5245145;28;20085;-73
2023/01/25 07:49:24;;;;;;;107.45;35.83;;;;;;;-0.93;100.00;103529.78;5259356;28;20013;-73
2023/01/25 07:51:55;;;;;;;106.40;36.45;;;;;;;-0.94;100.00;103518.38;5257302;28;20024;-74
2023/01/25 07:54:25;;;;;;;103.82;35.97;;;;;;;-0.92;100.00;103521.84;5253148;28;20020;-74
2023/01/25 07:56:56;;;;;;;112.90;37.45;;;;;;;-0.88;100.00;103520.91;5264510;28;20107;-74
2023/01/25 07:59:27;;;;;;;102.43;36.00;;;;;;;-0.89;100.00;103513.91;5256284;28;20028;-74
2023/01/25 08:01:57;;;;;;;110.68;36.13;;;;;;;-0.85;100.00;103520.00;5244768;28;20035;-74
2023/01/25 08:04:28;;;;;;;96.97;33.25;;;;;;;-0.86;100.00;103503.28;5245444;28;20031;-74
2023/01/25 08:06:58;;;;;;;101.78;34.60;;;;;;;-0.85;100.00;103505.06;5246038;28;20508;-74
2023/01/25 08:09:29;;;;;;;92.95;34.78;;;;;;;-0.80;100.00;103512.88;5257078;28;20082;-74
2023/01/25 08:11:59;;;;;;;99.38;37.13;;;;;;;-0.79;100.00;103507.56;5247831;28;20563;-74
2023/01/25 08:14:30;;;;;;;102.15;34.58;;;;;;;-0.73;100.00;103505.72;5265899;28;20020;-74
2023/01/25 08:17:01;;;;;;;111.70;37.83;;;;;;;-0.71;100.00;103509.19;5242795;28;20017;-74
2023/01/25 08:19:31;;;;;;;113.75;38.17;;;;;;;-0.72;100.00;103504.81;5243982;28;20040;-74
2023/01/25 08:22:01;;;;;;;113.57;38.13;;;;;;;-0.69;100.00;103504.75;5244806;28;20028;-74
2023/01/25 08:24:32;;;;;;;112.50;40.35;;;;;;;-0.70;100.00;103500.38;5245067;28;20488;-74
2023/01/25 08:27:02;;;;;;;111.45;38.22;;;;;;;-0.69;100.00;103504.75;5257808;28;20032;-74
2023/01/25 08:29:33;;;;;;;105.50;36.33;;;;;;;-0.63;100.00;103499.38;5244303;28;20085;-74
2023/01/25 08:32:05;;;;;;;109.45;37.00;;;;;;;-0.59;100.00;103503.69;5244648;28;20031;-74
2023/01/25 08:34:36;;;;;;;103.07;34.83;;;;;;;-0.55;100.00;103503.59;5244415;28;20054;-74
2023/01/25 08:37:07;;;;;;;99.20;36.05;;;;;;;-0.50;100.00;103505.25;5243895;28;20054;-74
2023/01/25 08:39:37;;;;;;;110.57;39.28;;;;;;;-0.58;100.00;103503.66;5257688;28;20445;-74
2023/01/25 08:42:08;;;;;;;112.80;36.58;;;;;;;-0.65;100.00;103494.13;5244379;28;20090;-74
2023/01/25 08:44:38;;;;;;;120.03;47.95;;;;;;;-0.66;100.00;103497.66;5258050;28;20032;-73
2023/01/25 08:47:08;;;;;;;105.13;36.67;;;;;;;-0.69;100.00;103492.44;5243696;28;20028;-74
2023/01/25 08:49:39;;;;;;;114.18;37.88;;;;;;;-0.69;100.00;103488.94;5243823;28;20115;-74
2023/01/25 08:52:13;;;;;;;110.13;39.03;;;;;;;-0.69;100.00;103491.59;5243047;28;20028;-74
2023/01/25 08:54:44;;;;;;;111.70;38.57;;;;;;;-0.70;100.00;103488.09;5251296;28;20020;-74
2023/01/25 08:57:14;;;;;;;111.22;38.22;;;;;;;-0.67;100.00;103489.78;5262601;28;20288;-74
2023/01/25 08:59:45;;;;;;;105.93;36.75;;;;;;;-0.60;100.00;103483.50;5251998;28;20026;-74
2023/01/25 09:02:15;;;;;;;106.78;37.05;;;;;;;-0.65;100.00;103486.22;5262410;28;20099;-74
2023/01/25 09:04:46;;;;;;;112.80;37.30;;;;;;;-0.68;100.00;103488.91;5253860;28;20025;-74
2023/01/25 09:07:16;;;;;;;155.00;59.38;;;;;;;-0.67;100.00;103481.88;5261321;28;20028;-74
2023/01/25 09:09:47;;;;;;;112.47;38.00;;;;;;;-0.65;100.00;103494.13;5254864;28;20035;-74
2023/01/25 09:12:17;;;;;;;115.65;39.83;;;;;;;-0.65;100.00;103491.50;5263138;28;20095;-74
2023/01/25 09:14:48;;;;;;;112.28;39.17;;;;;;;-0.63;100.00;103483.56;5255735;28;20028;-74
2023/01/25 09:17:18;;;;;;;100.72;36.22;;;;;;;-0.62;100.00;103491.41;5262609;28;20388;-74
2023/01/25 09:19:49;;;;;;;118.68;38.70;;;;;;;-0.57;100.00;103493.97;5264450;28;20111;-74
2023/01/25 09:22:19;;;;;;;114.25;38.15;;;;;;;-0.48;100.00;103493.78;5244187;28;20480;-74
2023/01/25 09:24:52;;;;;;;119.13;37.00;;;;;;;-0.44;100.00;103484.06;5243182;28;20396;-74
2023/01/25 09:27:23;;;;;;;101.78;35.03;;;;;;;-0.44;100.00;103492.84;5252736;28;20396;-74
2023/01/25 09:29:53;;;;;;;107.55;36.22;;;;;;;-0.42;100.00;103492.81;5263753;28;20032;-74
2023/01/25 09:32:24;;;;;;;108.95;35.00;;;;;;;-0.47;100.00;103494.66;5263836;28;20024;-74
2023/01/25 09:34:54;;;;;;;108.72;37.50;;;;;;;-0.46;100.00;103491.97;5253241;28;20047;-74
2023/01/25 09:37:25;;;;;;;104.18;36.60;;;;;;;-0.46;100.00;103486.72;5253606;28;20020;-74
2023/01/25 09:39:55;;;;;;;111.18;35.88;;;;;;;-0.46;100.00;103485.84;5244314;28;20530;-74
2023/01/25 09:42:50;;;;;;;112.15;35.17;;;;;;;-0.52;100.00;103489.47;5243777;28;20036;-74
2023/01/25 09:45:31;;;;;;;106.95;36.40;;;;;;;-0.60;100.00;103487.00;5244174;28;20029;-74
2023/01/25 09:48:20;;;;;;;117.78;39.10;;;;;;;-0.78;100.00;103482.06;5262407;28;20215;-74
2023/01/25 09:51:06;;;;;;;121.32;37.20;;;;;;;-0.80;100.00;103481.25;5251474;28;20389;-74
2023/01/25 09:53:39;;;;;;;114.70;37.40;;;;;;;-0.70;100.00;103476.63;5253451;28;20514;-74
2023/01/25 09:56:25;;;;;;;110.82;36.97;;;;;;;-0.74;100.00;103475.84;5256930;28;20039;-74
2023/01/25 09:59:09;;;;;;;128.30;43.65;;;;;;;-0.72;100.00;103483.72;5243788;28;20028;-74
2023/01/25 10:02:18;;;;;;;123.70;40.35;;;;;;;-0.75;100.00;103483.75;5242128;28;20024;-74
2023/01/25 10:04:53;;;;;;;125.07;40.95;;;;;;;-0.74;100.00;103474.97;5243859;28;20025;-74
2023/01/25 10:07:49;;;;;;;124.72;40.05;;;;;;;-0.73;100.00;103474.94;5261162;28;20730;-74
2023/01/25 10:10:34;;;;;;;120.00;40.88;;;;;;;-0.65;100.00;103473.03;5248432;28;20025;-74
2023/01/25 10:13:11;;;;;;;;;;;;;;;-0.59;100.00;103472.06;5244192;28;20029;-74
2023/01/25 10:15:46;;;;;;;121.15;39.60;;;;;;;-0.55;100.00;103471.97;5252822;28;19915;-74
2023/01/25 10:18:41;;;;;;;120.07;38.97;;;;;;;-0.48;100.00;103470.06;5242781;28;20039;-74
2023/01/25 10:21:20;;;;;;;118.83;39.57;;;;;;;-0.48;100.00;103466.56;5191966;28;20068;-74
2023/01/25 10:24:42;;;;;;;121.53;39.15;;;;;;;-0.43;100.00;103468.19;5243172;28;20025;-74
2023/01/25 10:27:38;;;;;;;121.88;39.80;;;;;;;-0.39;100.00;103456.69;5216926;28;20032;-74
2023/01/25 10:30:33;;;;;;;123.35;40.20;;;;;;;-0.34;100.00;103459.22;5262254;28;20024;-74
2023/01/25 10:33:14;;;;;;;118.20;39.97;;;;;;;-0.37;100.00;103459.28;5253596;28;20025;-74
2023/01/25 10:35:47;;;;;;;127.07;41.63;;;;;;;-0.37;100.00;103454.00;5267292;28;20396;-74
2023/01/25 10:38:26;;;;;;;133.52;44.45;;;;;;;-0.41;100.00;103453.19;5261738;28;20078;-74
2023/01/25 10:41:23;;;;;;;133.05;41.70;;;;;;;-0.44;100.00;103442.72;5247059;28;20476;-74
2023/01/25 10:46:50;;;;;;;132.55;41.25;;;;;;;-0.37;100.00;103436.41;5254942;28;20484;-74
2023/01/25 10:49:34;;;;;;;126.45;40.13;;;;;;;-0.31;100.00;103428.38;5251538;28;20028;-74
2023/01/25 10:52:20;;;;;;;123.35;40.78;;;;;;;-0.20;100.00;103416.69;5246153;28;20028;-74
2023/01/25 10:55:17;;;;;;;119.28;38.90;;;;;;;-0.24;100.00;103415.94;5253855;28;20515;-74
2023/01/25 10:57:54;;;;;;;126.10;40.40;;;;;;;-0.18;100.00;103407.88;5249128;28;20115;-74
2023/01/25 11:00:38;;;;;;;121.00;39.17;;;;;;;-0.21;100.00;103402.66;5259738;28;20020;-74
2023/01/25 11:03:19;;;;;;;118.47;39.97;;;;;;;-0.13;100.00;103397.22;5256852;28;20028;-74
2023/01/25 11:05:55;;;;;;;124.35;40.25;;;;;;;-0.21;100.00;103389.44;5260943;28;20038;-74
2023/01/25 11:08:38;;;;;;;120.88;39.78;;;;;;;-0.27;100.00;103387.81;5247439;28;20562;-74
2023/01/25 11:11:32;;;;;;;122.47;40.88;;;;;;;-0.30;100.00;103381.78;5246492;28;20024;-74
2023/01/25 11:14:16;;;;;;;125.60;41.25;;;;;;;-0.15;100.00;103372.63;5246182;28;20759;-74
2023/01/25 11:16:47;;;;;;;112.78;38.05;;;;;;;-0.26;100.00;103367.59;5262024;28;20027;-74
2023/01/25 11:19:26;;;;;;;121.68;40.20;;;;;;;-0.30;100.00;103358.91;5246673;28;20393;-74
2023/01/25 11:21:58;;;;;;;128.07;41.85;;;;;;;-0.28;100.00;103358.84;5249874;28;20039;-74
2023/01/25 11:24:34;;;;;;;126.45;41.88;;;;;;;-0.26;100.00;103351.75;5255460;28;20118;-74
2023/01/25 11:27:20;;;;;;;122.57;41.75;;;;;;;-0.18;100.00;103348.97;5259873;28;20032;-74
2023/01/25 11:30:13;;;;;;;131.10;42.08;;;;;;;-0.10;100.00;103345.25;5248878;28;20020;-74
2023/01/25 11:32:44;;;;;;;131.93;42.78;;;;;;;-0.03;100.00;103345.94;5254206;28;20432;-74